Time;durP1;ratioP1;P1;durP2;ratioP2;P2;SDS_P1;SDS_P2;PMS_P1;PMS_P2;Temp;Humidity;BMP_temperature;BMP_pressure;BME280_temperature;BME280_humidity;BME280_pressure;Samples;Min_cycle;Max_cycle;Signal;HPM_P1;HPM_P2
2023/06/25 00:01:24;;;;;;;1999.90;999.90;;;21.90;99.90;;;;;;5032771;28;20036;-71
2023/06/25 00:03:51;;;;;;;1999.90;999.90;;;21.80;99.90;;;;;;5031436;28;20094;-71
2023/06/25 00:06:16;;;;;;;1999.90;999.90;;;21.80;99.90;;;;;;5032985;28;20030;-71
2023/06/25 00:08:42;;;;;;;1999.90;999.90;;;21.70;99.90;;;;;;5032721;28;20033;-71
2023/06/25 00:11:07;;;;;;;1999.90;999.90;;;21.60;99.90;;;;;;5033186;28;20068;-71
2023/06/25 00:13:33;;;;;;;1999.90;999.90;;;21.50;99.90;;;;;;5032908;28;20050;-71
2023/06/25 00:15:59;;;;;;;1999.90;999.90;;;21.50;99.90;;;;;;5032560;28;20048;-71
2023/06/25 00:18:26;;;;;;;1999.90;999.90;;;21.40;99.90;;;;;;5032860;28;20033;-71
2023/06/25 00:20:53;;;;;;;1999.90;999.90;;;21.30;99.90;;;;;;5032843;28;20399;-71
2023/06/25 00:23:19;;;;;;;1999.90;999.90;;;21.30;99.90;;;;;;5031692;28;20029;-71
2023/06/25 00:25:44;;;;;;;1999.90;999.90;;;21.20;99.90;;;;;;5032605;28;20506;-71
2023/06/25 00:28:10;;;;;;;1999.90;999.90;;;21.10;99.90;;;;;;5032814;28;20022;-71
2023/06/25 00:30:37;;;;;;;1999.90;999.90;;;21.10;99.90;;;;;;5032889;28;20029;-71
2023/06/25 00:33:03;;;;;;;1999.90;999.90;;;21.00;99.90;;;;;;5032604;28;20120;-72
2023/06/25 00:36:08;;;;;;;1999.90;999.90;;;21.00;99.90;;;;;;5033090;28;20025;-71
2023/06/25 00:38:35;;;;;;;1999.90;999.90;;;20.90;99.90;;;;;;5032080;28;20098;-71
2023/06/25 00:41:08;;;;;;;1999.90;999.90;;;20.80;99.90;;;;;;5032027;28;20025;-71
2023/06/25 00:43:34;;;;;;;1999.90;999.90;;;20.80;99.90;;;;;;5032965;28;20037;-72
2023/06/25 00:46:00;;;;;;;1999.90;999.90;;;20.70;99.90;;;;;;5032645;28;20077;-71
2023/06/25 00:48:27;;;;;;;1999.90;999.90;;;20.70;99.90;;;;;;5032627;28;20064;-71
2023/06/25 00:50:53;;;;;;;1999.90;999.90;;;20.60;99.90;;;;;;5032294;28;20369;-71
2023/06/25 00:53:20;;;;;;;1999.90;999.90;;;20.60;99.90;;;;;;5032997;28;20045;-71
2023/06/25 00:55:50;;;;;;;1999.90;999.90;;;20.50;99.90;;;;;;5032938;28;20074;-71
2023/06/25 00:58:20;;;;;;;1999.90;999.90;;;20.50;99.90;;;;;;5032390;28;20108;-71
2023/06/25 01:00:47;;;;;;;1999.90;999.90;;;20.50;99.90;;;;;;5036501;28;20026;-72
2023/06/25 01:03:16;;;;;;;1999.90;999.90;;;20.50;99.90;;;;;;5035934;28;20458;-71
2023/06/25 01:06:06;;;;;;;1999.90;999.90;;;20.40;99.90;;;;;;5036389;28;20097;-71
2023/06/25 01:08:36;;;;;;;1999.90;999.90;;;20.40;99.90;;;;;;5035845;28;20346;-71
2023/06/25 01:11:03;;;;;;;1999.90;999.90;;;20.30;99.90;;;;;;5036160;28;20018;-71
2023/06/25 01:13:29;;;;;;;1999.90;999.90;;;20.30;99.90;;;;;;5036453;28;20046;-71
2023/06/25 01:15:54;;;;;;;1999.90;999.90;;;20.20;99.90;;;;;;5036014;28;20385;-71
2023/06/25 01:18:22;;;;;;;1999.90;999.90;;;20.20;99.90;;;;;;5036061;28;20029;-71
2023/06/25 01:20:52;;;;;;;1999.90;999.90;;;20.20;99.90;;;;;;5035999;28;20366;-71
2023/06/25 01:23:21;;;;;;;1999.90;999.90;;;20.20;99.90;;;;;;5035905;28;20464;-71
2023/06/25 01:25:47;;;;;;;1999.90;999.90;;;20.20;99.90;;;;;;5035367;28;20021;-71
2023/06/25 01:28:13;;;;;;;1999.90;999.90;;;20.20;99.90;;;;;;5035145;28;20041;-71
2023/06/25 01:30:39;;;;;;;1999.90;999.90;;;20.20;99.90;;;;;;5035673;28;20025;-71
2023/06/25 01:33:04;;;;;;;1999.90;999.90;;;20.10;99.90;;;;;;5035770;28;20049;-71
2023/06/25 01:35:30;;;;;;;1999.90;999.90;;;20.00;99.90;;;;;;5035916;28;20018;-71
2023/06/25 01:37:56;;;;;;;1999.90;999.90;;;20.00;99.90;;;;;;5035551;28;20072;-71
2023/06/25 01:40:22;;;;;;;1999.90;999.90;;;19.90;99.90;;;;;;5034644;28;20049;-71
2023/06/25 01:42:47;;;;;;;1999.90;999.90;;;19.90;99.90;;;;;;5035680;28;20495;-71
2023/06/25 01:45:13;;;;;;;1999.90;999.90;;;19.80;99.90;;;;;;5035387;28;20033;-71
2023/06/25 01:47:41;;;;;;;1999.90;999.90;;;19.70;99.90;;;;;;5035151;28;20032;-71
2023/06/25 01:50:08;;;;;;;1999.90;999.90;;;19.70;99.90;;;;;;5035391;28;20504;-71
2023/06/25 01:52:34;;;;;;;1999.90;999.90;;;19.70;99.90;;;;;;5035189;28;20022;-71
2023/06/25 01:54:59;;;;;;;1999.90;999.90;;;19.70;99.90;;;;;;5035652;28;20024;-71
2023/06/25 01:57:25;;;;;;;1999.90;999.90;;;19.70;99.90;;;;;;5033854;28;20033;-72
2023/06/25 01:59:50;;;;;;;1999.90;999.90;;;19.70;99.90;;;;;;5035349;28;20492;-71
2023/06/25 02:02:16;;;;;;;1999.90;999.90;;;19.80;99.90;;;;;;5035035;28;20067;-71
2023/06/25 02:04:45;;;;;;;1999.90;999.90;;;19.90;99.90;;;;;;5035292;28;20025;-72
2023/06/25 02:07:10;;;;;;;1999.90;999.90;;;20.00;99.90;;;;;;5034577;28;20056;-71
2023/06/25 02:09:36;;;;;;;1999.90;999.90;;;20.10;99.90;;;;;;5034939;28;20092;-71
2023/06/25 02:12:02;;;;;;;1999.90;999.90;;;20.10;99.90;;;;;;5034160;28;20108;-71
2023/06/25 02:14:28;;;;;;;1999.90;999.90;;;20.20;99.90;;;;;;5034706;28;20172;-71
2023/06/25 02:16:53;;;;;;;1999.90;999.90;;;20.20;99.90;;;;;;5034820;28;20040;-71
2023/06/25 02:19:19;;;;;;;1999.90;999.90;;;20.20;99.90;;;;;;5035003;28;20026;-72
2023/06/25 02:21:44;;;;;;;1999.90;999.90;;;20.10;99.90;;;;;;5035060;28;20101;-71
2023/06/25 02:24:10;;;;;;;1999.90;999.90;;;20.10;99.90;;;;;;5034671;28;20500;-71
2023/06/25 02:26:35;;;;;;;1999.90;999.90;;;20.10;99.90;;;;;;5034766;28;20029;-71
2023/06/25 02:29:01;;;;;;;1999.90;999.90;;;20.10;99.90;;;;;;5034679;28;20034;-71
2023/06/25 02:31:27;;;;;;;1999.90;999.90;;;20.00;99.90;;;;;;5034836;28;20018;-71
2023/06/25 02:33:52;;;;;;;1999.90;999.90;;;20.00;99.90;;;;;;5034692;28;20036;-71
2023/06/25 02:36:18;;;;;;;1999.90;999.90;;;20.00;99.90;;;;;;5033325;28;20021;-71
2023/06/25 02:38:44;;;;;;;1999.90;999.90;;;20.00;99.90;;;;;;5034498;28;20056;-71
2023/06/25 02:41:09;;;;;;;1999.90;999.90;;;20.00;99.90;;;;;;5033960;28;20105;-71
2023/06/25 02:43:35;;;;;;;1999.90;999.90;;;19.90;99.90;;;;;;5034375;28;20495;-71
2023/06/25 02:46:00;;;;;;;1999.90;999.90;;;19.90;99.90;;;;;;5034439;28;20040;-71
2023/06/25 02:48:26;;;;;;;1999.90;999.90;;;19.90;99.90;;;;;;5034219;28;20029;-72
2023/06/25 02:50:52;;;;;;;1999.90;999.90;;;19.80;99.90;;;;;;5029602;28;20029;-71
2023/06/25 02:53:17;;;;;;;1999.90;999.90;;;19.80;99.90;;;;;;5014479;28;20469;-71
2023/06/25 02:55:46;;;;;;;1999.90;999.90;;;19.70;99.90;;;;;;5014426;28;20026;-71
2023/06/25 02:58:11;;;;;;;1999.90;999.90;;;19.70;99.90;;;;;;5014390;28;20029;-71
2023/06/25 03:00:37;;;;;;;1999.90;999.90;;;19.60;99.90;;;;;;5014249;28;20444;-71
2023/06/25 03:03:02;;;;;;;1999.90;999.90;;;19.60;99.90;;;;;;5029314;28;20044;-71
2023/06/25 03:05:28;;;;;;;1999.90;999.90;;;19.60;99.90;;;;;;5033959;28;20075;-72
2023/06/25 03:07:58;;;;;;;1999.90;999.90;;;19.50;99.90;;;;;;5032568;28;20087;-71
2023/06/25 03:10:26;;;;;;;1999.90;999.90;;;19.40;99.90;;;;;;5033860;28;20104;-72
2023/06/25 03:12:52;;;;;;;1999.90;999.90;;;19.40;99.90;;;;;;5033607;28;20124;-71
2023/06/25 03:15:18;;;;;;;1999.90;999.90;;;19.50;99.90;;;;;;5033662;28;20072;-71
2023/06/25 03:17:44;;;;;;;1999.90;999.90;;;19.50;99.90;;;;;;5033752;28;20047;-71
2023/06/25 03:20:11;;;;;;;1999.90;999.90;;;19.50;99.90;;;;;;5033838;28;20101;-71
2023/06/25 03:22:37;;;;;;;1999.90;999.90;;;19.50;99.90;;;;;;5033554;28;20087;-71
2023/06/25 03:25:03;;;;;;;1999.90;999.90;;;19.50;99.90;;;;;;5033697;28;20496;-71
2023/06/25 03:27:30;;;;;;;1999.90;999.90;;;19.60;99.90;;;;;;5033748;28;20595;-71
2023/06/25 03:29:56;;;;;;;1999.90;999.90;;;19.50;99.90;;;;;;5033631;28;20013;-71
2023/06/25 03:32:21;;;;;;;1999.90;999.90;;;19.50;99.90;;;;;;5033529;28;20037;-71
2023/06/25 03:34:47;;;;;;;1999.90;999.90;;;19.50;99.90;;;;;;5033865;28;20025;-72
2023/06/25 03:37:13;;;;;;;1999.90;999.90;;;19.40;99.90;;;;;;5033917;28;20377;-71
2023/06/25 03:39:38;;;;;;;1999.90;999.90;;;19.30;99.90;;;;;;5033297;28;20028;-71
2023/06/25 03:42:04;;;;;;;1999.90;999.90;;;19.30;99.90;;;;;;5031507;28;20029;-71
2023/06/25 03:44:30;;;;;;;1999.90;999.90;;;19.30;99.90;;;;;;5033132;28;20439;-71
2023/06/25 03:46:55;;;;;;;1999.90;999.90;;;19.20;99.90;;;;;;5032709;28;20029;-71
2023/06/25 03:49:21;;;;;;;1999.90;999.90;;;19.10;99.90;;;;;;5033125;28;20025;-71
2023/06/25 03:51:47;;;;;;;1999.90;999.90;;;19.10;99.90;;;;;;5033171;28;20033;-71
2023/06/25 03:54:13;;;;;;;1999.90;999.90;;;19.00;99.90;;;;;;5033142;28;20443;-71
2023/06/25 03:56:38;;;;;;;1999.90;999.90;;;19.00;99.90;;;;;;5033314;28;20026;-71
2023/06/25 03:59:04;;;;;;;1999.90;999.90;;;18.90;99.90;;;;;;5033305;28;20033;-71
2023/06/25 04:01:29;;;;;;;1999.90;999.90;;;18.90;99.90;;;;;;5033112;28;20026;-71
2023/06/25 04:03:55;;;;;;;1999.90;999.90;;;18.80;99.90;;;;;;5032967;28;20029;-71
2023/06/25 04:06:21;;;;;;;1999.90;999.90;;;18.80;99.90;;;;;;5033499;28;20521;-71
2023/06/25 04:08:46;;;;;;;1999.90;999.90;;;18.80;99.90;;;;;;5033060;28;20029;-71
2023/06/25 04:11:12;;;;;;;1999.90;999.90;;;18.80;99.90;;;;;;5033214;28;20013;-71
2023/06/25 04:13:38;;;;;;;1999.90;999.90;;;18.80;99.90;;;;;;5032929;28;20065;-71
2023/06/25 04:16:06;;;;;;;1999.90;999.90;;;18.80;99.90;;;;;;5033107;28;20101;-71
2023/06/25 04:18:31;;;;;;;1999.90;999.90;;;18.80;99.90;;;;;;5032872;28;20033;-71
2023/06/25 04:20:57;;;;;;;1999.90;999.90;;;18.80;99.90;;;;;;5032063;28;20127;-71
2023/06/25 04:23:23;;;;;;;1999.90;999.90;;;18.80;99.90;;;;;;5032886;28;20502;-71
2023/06/25 04:25:48;;;;;;;1999.90;999.90;;;18.80;99.90;;;;;;5032967;28;20036;-71
2023/06/25 04:28:17;;;;;;;1999.90;999.90;;;18.70;99.90;;;;;;5032896;28;20033;-71
2023/06/25 04:30:43;;;;;;;1999.90;999.90;;;18.70;99.90;;;;;;5033026;28;20391;-71
2023/06/25 04:33:09;;;;;;;1999.90;999.90;;;18.70;99.90;;;;;;5032925;28;20033;-71
2023/06/25 04:35:34;;;;;;;1999.90;999.90;;;18.70;99.90;;;;;;5036450;28;20104;-71
2023/06/25 04:38:00;;;;;;;1999.90;999.90;;;18.70;99.90;;;;;;5036875;28;20056;-71
2023/06/25 04:40:26;;;;;;;1999.90;999.90;;;18.70;99.90;;;;;;5036521;28;20554;-71
2023/06/25 04:42:51;;;;;;;1999.90;999.90;;;18.70;99.90;;;;;;5036142;28;20030;-71
2023/06/25 04:45:18;;;;;;;1999.90;999.90;;;18.70;99.90;;;;;;5036764;28;20080;-71
2023/06/25 04:47:44;;;;;;;1999.90;999.90;;;18.80;99.90;;;;;;5036578;28;20030;-71
2023/06/25 04:50:10;;;;;;;1999.90;999.90;;;18.80;99.90;;;;;;5036542;28;20047;-71
2023/06/25 04:52:36;;;;;;;1999.90;999.90;;;18.80;99.90;;;;;;5036493;28;20033;-71
2023/06/25 04:55:01;;;;;;;1999.90;999.90;;;18.90;99.90;;;;;;5036623;28;20120;-72
2023/06/25 04:57:27;;;;;;;1999.90;999.90;;;18.90;99.90;;;;;;5036380;28;20029;-72
2023/06/25 04:59:53;;;;;;;1999.90;999.90;;;18.90;99.90;;;;;;5035680;28;20041;-71
2023/06/25 05:02:18;;;;;;;1999.90;999.90;;;19.00;99.90;;;;;;5035687;28;20033;-72
2023/06/25 05:04:44;;;;;;;1999.90;999.90;;;19.00;99.90;;;;;;5036323;28;20033;-71
2023/06/25 05:07:10;;;;;;;1999.90;999.90;;;19.10;99.90;;;;;;5036466;28;20033;-71
2023/06/25 05:09:35;;;;;;;1999.90;999.90;;;19.10;99.90;;;;;;5036154;28;20013;-71
2023/06/25 05:12:02;;;;;;;1999.90;999.90;;;19.20;99.90;;;;;;5036226;28;20028;-71
2023/06/25 05:14:28;;;;;;;1999.90;999.90;;;19.30;99.90;;;;;;5036081;28;20041;-72
2023/06/25 05:16:53;;;;;;;1999.90;999.90;;;19.40;99.90;;;;;;5034702;28;20152;-71
2023/06/25 05:19:19;;;;;;;1999.90;999.90;;;19.50;99.90;;;;;;5036370;28;20527;-71
2023/06/25 05:21:45;;;;;;;1999.90;999.90;;;19.50;99.90;;;;;;5035984;28;20025;-72
2023/06/25 05:24:11;;;;;;;1999.90;999.90;;;19.60;99.90;;;;;;5036182;28;20377;-71
2023/06/25 05:26:36;;;;;;;1999.90;999.90;;;19.70;99.90;;;;;;5035820;28;20029;-71
2023/06/25 05:29:02;;;;;;;1999.90;999.90;;;19.70;99.90;;;;;;5035717;28;20404;-71
2023/06/25 05:31:28;;;;;;;1999.90;999.90;;;19.80;99.90;;;;;;5036021;28;20021;-71
2023/06/25 05:33:54;;;;;;;1999.90;999.90;;;19.90;99.90;;;;;;5036427;28;20022;-71
2023/06/25 05:36:20;;;;;;;1999.90;999.90;;;20.00;99.90;;;;;;5035701;28;20469;-71
2023/06/25 05:38:46;;;;;;;1999.90;999.90;;;20.10;99.90;;;;;;5035474;28;20036;-72
2023/06/25 05:41:12;;;;;;;1999.90;999.90;;;20.10;99.90;;;;;;5035802;28;20029;-71
2023/06/25 05:43:39;;;;;;;1999.90;999.90;;;20.20;99.90;;;;;;5034647;28;20097;-72
2023/06/25 05:46:04;;;;;;;1999.90;999.90;;;20.30;99.90;;;;;;5035678;28;20404;-71
2023/06/25 05:48:30;;;;;;;1999.90;999.90;;;20.40;99.90;;;;;;5035457;28;20025;-71
2023/06/25 05:50:56;;;;;;;1999.90;999.90;;;20.40;99.90;;;;;;5035192;28;20104;-71
2023/06/25 05:53:27;;;;;;;1999.90;999.90;;;20.50;99.90;;;;;;5035399;28;20527;-71
2023/06/25 05:55:55;;;;;;;1999.90;999.90;;;20.50;99.90;;;;;;5035625;28;20021;-71
2023/06/25 05:58:21;;;;;;;1999.90;999.90;;;20.60;99.90;;;;;;5035490;28;20036;-71
2023/06/25 06:00:47;;;;;;;1999.90;999.90;;;20.70;99.90;;;;;;5035627;28;20079;-71
2023/06/25 06:03:13;;;;;;;1999.90;999.90;;;20.90;99.90;;;;;;5035222;28;20025;-72
2023/06/25 06:05:38;;;;;;;1999.90;999.90;;;21.00;99.90;;;;;;5035355;28;20030;-72
2023/06/25 06:08:04;;;;;;;1999.90;999.90;;;21.10;99.90;;;;;;5033710;28;20091;-71
2023/06/25 06:10:29;;;;;;;1999.90;999.90;;;21.30;99.90;;;;;;5034796;28;20026;-71
2023/06/25 06:12:55;;;;;;;1999.90;999.90;;;21.40;99.90;;;;;;5035019;28;20149;-71
2023/06/25 06:15:21;;;;;;;1999.90;999.90;;;21.50;99.90;;;;;;5035005;28;20401;-72
2023/06/25 06:17:46;;;;;;;1999.90;999.90;;;21.60;99.90;;;;;;5034944;28;20443;-72
2023/06/25 06:20:15;;;;;;;1999.90;999.90;;;21.70;99.90;;;;;;5033396;28;20116;-71
2023/06/25 06:22:40;;;;;;;1999.90;999.90;;;21.80;99.90;;;;;;5034877;28;20029;-72
2023/06/25 06:25:06;;;;;;;1999.90;999.90;;;21.90;99.90;;;;;;5034829;28;20029;-72
2023/06/25 06:27:32;;;;;;;1999.90;999.90;;;22.00;99.90;;;;;;5035152;28;20017;-72
2023/06/25 06:29:57;;;;;;;1999.90;999.90;;;22.10;99.90;;;;;;5034749;28;20025;-71
2023/06/25 06:32:23;;;;;;;1999.90;999.90;;;22.10;99.90;;;;;;5034417;28;20472;-71
2023/06/25 06:34:49;;;;;;;1999.90;999.90;;;22.20;99.90;;;;;;5034946;28;20018;-71
2023/06/25 06:37:14;;;;;;;1999.90;999.90;;;22.30;99.90;;;;;;5034840;28;20049;-72
2023/06/25 06:39:40;;;;;;;1999.90;999.90;;;22.40;99.90;;;;;;5034833;28;20512;-72
2023/06/25 06:42:06;;;;;;;1999.90;999.90;;;22.50;99.90;;;;;;5034638;28;20028;-71
2023/06/25 06:44:31;;;;;;;1999.90;999.90;;;22.60;99.90;;;;;;5033437;28;20021;-72
2023/06/25 06:46:57;;;;;;;1999.90;999.90;;;22.70;99.90;;;;;;5034456;28;20017;-71
2023/06/25 06:49:23;;;;;;;1999.90;999.90;;;22.80;99.90;;;;;;5034279;28;20483;-71
2023/06/25 06:51:48;;;;;;;1999.90;999.90;;;22.90;99.90;;;;;;5034378;28;20026;-72
2023/06/25 06:54:14;;;;;;;1999.90;999.90;;;23.10;99.90;;;;;;5034337;28;20079;-72
2023/06/25 06:56:40;;;;;;;1999.90;999.90;;;23.30;99.90;;;;;;5033619;28;20026;-72
2023/06/25 06:59:05;;;;;;;1999.90;999.90;;;23.50;99.90;;;;;;5034471;28;20036;-72
2023/06/25 07:01:33;;;;;;;1999.90;999.90;;;23.60;99.90;;;;;;5032902;28;20061;-73
2023/06/25 07:03:58;;;;;;;1999.90;999.90;;;23.70;99.90;;;;;;5034324;28;20095;-72
2023/06/25 07:06:24;;;;;;;1999.90;999.90;;;23.80;99.90;;;;;;5033910;28;20037;-72
2023/06/25 07:08:50;;;;;;;1999.90;999.90;;;23.90;99.90;;;;;;5034108;28;20523;-72
2023/06/25 07:11:18;;;;;;;1999.90;999.90;;;24.00;99.90;;;;;;5033742;28;20036;-72
2023/06/25 07:13:44;;;;;;;1999.90;999.90;;;24.20;99.90;;;;;;5033877;28;20465;-72
2023/06/25 07:16:10;;;;;;;1999.90;999.90;;;24.30;99.90;;;;;;5033507;28;20112;-72
2023/06/25 07:18:36;;;;;;;1999.90;999.90;;;24.50;99.90;;;;;;5033541;28;20083;-72
2023/06/25 07:21:01;;;;;;;1999.90;999.90;;;24.70;99.90;;;;;;5033933;28;20059;-72
2023/06/25 07:23:27;;;;;;;1999.90;999.90;;;24.80;99.90;;;;;;5033969;28;20124;-72
2023/06/25 07:25:53;;;;;;;1999.90;999.90;;;25.00;99.90;;;;;;5033475;28;20123;-72
2023/06/25 07:28:19;;;;;;;1999.90;999.90;;;25.20;99.90;;;;;;5031902;28;20061;-72
2023/06/25 07:30:44;;;;;;;1999.90;999.90;;;25.50;99.90;;;;;;5033474;28;20401;-72
2023/06/25 07:33:10;;;;;;;1999.90;999.90;;;26.00;99.90;;;;;;5033486;28;20025;-72
2023/06/25 07:35:36;;;;;;;1999.90;999.90;;;27.90;99.90;;;;;;5033589;28;20032;-73
2023/06/25 07:38:01;;;;;;;1999.90;999.90;;;29.50;99.90;;;;;;5033990;28;20025;-72
2023/06/25 07:40:27;;;;;;;1999.90;999.90;;;30.20;99.90;;;;;;5033947;28;20353;-73
2023/06/25 07:42:52;;;;;;;1999.90;999.90;;;30.90;99.90;;;;;;5033666;28;20492;-73
2023/06/25 07:45:18;;;;;;;1999.90;999.90;;;31.40;99.90;;;;;;5032618;28;20041;-72
2023/06/25 07:47:44;;;;;;;1999.90;999.90;;;31.30;99.90;;;;;;5033215;28;20025;-72
2023/06/25 07:50:10;;;;;;;1999.90;999.90;;;31.30;99.90;;;;;;5033300;28;20056;-73
2023/06/25 07:52:35;;;;;;;1999.90;999.90;;;31.70;99.90;;;;;;5033260;28;20476;-73
2023/06/25 07:55:02;;;;;;;1999.90;999.90;;;31.80;99.90;;;;;;5033544;28;20029;-73
2023/06/25 07:57:27;;;;;;;1999.90;999.90;;;32.30;99.90;;;;;;5033215;28;20037;-73
2023/06/25 07:59:53;;;;;;;1999.90;999.90;;;32.50;99.90;;;;;;5033326;28;20524;-73
2023/06/25 08:02:19;;;;;;;1999.90;999.90;;;32.60;99.90;;;;;;5033122;28;20025;-73
2023/06/25 08:04:44;;;;;;;1999.90;999.90;;;32.90;99.70;;;;;;5033114;28;20052;-73
2023/06/25 08:07:10;;;;;;;1999.90;999.90;;;33.40;99.60;;;;;;5032889;28;20025;-73
2023/06/25 08:09:36;;;;;;;1999.90;999.90;;;33.50;99.40;;;;;;5034726;28;20025;-73
2023/06/25 08:12:01;;;;;;;1999.90;999.90;;;33.60;98.10;;;;;;5037382;28;20048;-73
2023/06/25 08:14:27;;;;;;;1999.90;999.90;;;33.30;98.80;;;;;;5037068;28;20428;-73
2023/06/25 08:16:52;;;;;;;1999.90;999.90;;;34.00;99.40;;;;;;5037143;28;20028;-73
2023/06/25 08:19:18;;;;;;;1999.90;999.90;;;34.00;98.00;;;;;;5036935;28;20030;-73
2023/06/25 08:21:44;;;;;;;1999.90;999.90;;;34.60;97.30;;;;;;5037340;28;20108;-73
2023/06/25 08:24:09;;;;;;;1999.90;999.90;;;34.90;96.50;;;;;;5037311;28;20029;-73
2023/06/25 08:26:35;;;;;;;1999.90;999.90;;;34.50;96.50;;;;;;5037006;28;20044;-73
2023/06/25 08:29:01;;;;;;;1999.90;999.90;;;34.00;96.90;;;;;;5037430;28;20033;-73
2023/06/25 08:31:26;;;;;;;1999.90;999.90;;;34.50;97.40;;;;;;5036805;28;20045;-73
2023/06/25 08:33:52;;;;;;;1999.90;999.90;;;34.30;97.40;;;;;;5037313;28;20040;-73
2023/06/25 08:36:17;;;;;;;1999.90;999.90;;;34.80;97.20;;;;;;5036705;28;20018;-73
2023/06/25 08:38:43;;;;;;;1999.90;999.90;;;34.50;96.30;;;;;;5036973;28;20510;-73
2023/06/25 08:41:09;;;;;;;1999.90;999.90;;;35.40;96.10;;;;;;5037046;28;20013;-73
2023/06/25 08:43:34;;;;;;;1999.90;999.90;;;35.10;96.00;;;;;;5036927;28;20029;-73
2023/06/25 08:46:01;;;;;;;1999.90;999.90;;;35.20;95.20;;;;;;5036072;28;20029;-73
2023/06/25 08:48:31;;;;;;;1999.90;999.90;;;34.30;95.70;;;;;;5036364;28;20531;-73
2023/06/25 08:51:03;;;;;;;1999.90;999.90;;;34.80;95.40;;;;;;5036443;28;20048;-73
2023/06/25 08:53:28;;;;;;;;;;;35.00;95.40;;;;;;5037142;28;20109;-73
2023/06/25 08:55:58;;;;;;;1999.90;999.90;;;35.10;95.10;;;;;;5036866;28;19909;-73
2023/06/25 08:58:24;;;;;;;1999.90;999.90;;;34.80;94.90;;;;;;5036454;28;20022;-73
2023/06/25 09:00:51;;;;;;;1999.90;999.90;;;35.10;95.30;;;;;;5035010;28;20032;-73
2023/06/25 09:03:16;;;;;;;1999.90;999.90;;;36.50;94.80;;;;;;5036264;28;20017;-74
2023/06/25 09:05:55;;;;;;;1999.90;999.90;;;36.00;94.70;;;;;;5036695;28;20030;-73
2023/06/25 09:08:25;;;;;;;1999.90;999.90;;;35.60;94.20;;;;;;5036104;28;20026;-73
2023/06/25 09:10:55;;;;;;;1999.90;999.90;;;34.90;95.10;;;;;;5036306;28;20053;-73
2023/06/25 09:13:27;;;;;;;1999.90;999.90;;;34.80;95.80;;;;;;5036005;28;20046;-73
2023/06/25 09:16:03;;;;;;;1999.90;999.90;;;34.70;95.00;;;;;;5034943;28;20554;-73
2023/06/25 09:18:32;;;;;;;1999.90;999.90;;;35.00;95.30;;;;;;5035940;28;20112;-73
2023/06/25 09:21:05;;;;;;;1999.90;999.90;;;35.30;94.80;;;;;;5035879;28;20480;-73
2023/06/25 09:23:31;;;;;;;1999.90;999.90;;;35.60;94.40;;;;;;5035081;28;20440;-73
2023/06/25 09:25:57;;;;;;;1999.90;999.90;;;35.40;95.20;;;;;;5035828;28;20029;-73
2023/06/25 09:28:22;;;;;;;1999.90;999.90;;;35.40;95.20;;;;;;5035719;28;20087;-73
2023/06/25 09:30:48;;;;;;;1999.90;999.90;;;35.30;95.40;;;;;;5035946;28;20028;-74
2023/06/25 09:33:15;;;;;;;1999.90;999.90;;;36.00;95.10;;;;;;5035752;28;20021;-73
2023/06/25 09:35:41;;;;;;;1999.90;999.90;;;36.90;94.00;;;;;;5036200;28;20030;-74
2023/06/25 09:38:07;;;;;;;1999.90;999.90;;;37.50;92.40;;;;;;5035704;28;20022;-73
2023/06/25 09:40:33;;;;;;;1999.90;999.90;;;37.20;92.80;;;;;;5036160;28;20388;-73
2023/06/25 09:43:00;;;;;;;1999.90;999.90;;;37.20;92.40;;;;;;5035634;28;20018;-73
2023/06/25 09:45:27;;;;;;;1999.90;999.90;;;36.50;92.50;;;;;;5035620;28;20384;-73
2023/06/25 09:47:56;;;;;;;1999.90;999.90;;;36.70;92.70;;;;;;5034642;28;20025;-73
2023/06/25 09:50:38;;;;;;;1999.90;999.90;;;35.60;92.30;;;;;;5035129;28;20087;-73
2023/06/25 09:53:06;;;;;;;;;;;35.70;92.90;;;;;;5036012;28;20101;-73
2023/06/25 09:55:34;;;;;;;1999.90;999.90;;;36.10;92.90;;;;;;5035335;28;19931;-73
2023/06/25 09:58:01;;;;;;;1999.90;999.90;;;36.70;92.40;;;;;;5035168;28;20100;-73
2023/06/25 10:00:28;;;;;;;1999.90;999.90;;;36.90;92.20;;;;;;5035612;28;20029;-73
2023/06/25 10:02:54;;;;;;;1999.90;999.90;;;36.10;92.10;;;;;;5035100;28;20033;-73
2023/06/25 10:05:20;;;;;;;1999.90;999.90;;;35.20;92.10;;;;;;5035761;28;20108;-72
2023/06/25 10:07:46;;;;;;;1999.90;999.90;;;34.10;93.30;;;;;;5035036;28;20593;-72
2023/06/25 10:10:22;;;;;;;1999.90;999.90;;;34.40;93.80;;;;;;5034823;28;20018;-73
2023/06/25 10:12:49;;;;;;;1999.90;999.90;;;35.10;93.10;;;;;;5034996;28;20072;-73
2023/06/25 10:15:15;;;;;;;1999.90;999.90;;;34.30;93.20;;;;;;5035029;28;20033;-73
2023/06/25 10:17:51;;;;;;;1999.90;999.90;;;34.40;93.50;;;;;;5035003;28;20112;-73
2023/06/25 10:20:26;;;;;;;1999.90;999.90;;;34.80;93.30;;;;;;5035093;28;20022;-73
2023/06/25 10:23:10;;;;;;;1999.90;999.90;;;35.30;93.30;;;;;;5034101;28;20472;-73
2023/06/25 10:25:39;;;;;;;1999.90;999.90;;;35.70;92.70;;;;;;5034971;28;20034;-72
2023/06/25 10:28:07;;;;;;;1999.90;999.90;;;36.20;93.00;;;;;;5034772;28;20041;-73
2023/06/25 10:30:41;;;;;;;1999.90;999.90;;;34.50;92.90;;;;;;5034821;28;20018;-73
2023/06/25 10:33:07;;;;;;;1999.90;999.90;;;33.80;94.30;;;;;;5033757;28;20036;-72
2023/06/25 10:35:40;;;;;;;1999.90;999.90;;;33.10;95.90;;;;;;5034873;28;20009;-72
2023/06/25 10:38:06;;;;;;;1999.90;999.90;;;32.40;97.50;;;;;;5034662;28;20017;-72
2023/06/25 10:40:41;;;;;;;1999.90;999.90;;;32.10;98.50;;;;;;5034613;28;20368;-72
2023/06/25 10:43:07;;;;;;;1999.90;999.90;;;31.70;97.80;;;;;;5034522;28;20030;-72
2023/06/25 10:45:33;;;;;;;1999.90;999.90;;;31.10;98.20;;;;;;5034025;28;20362;-72
2023/06/25 10:48:12;;;;;;;1999.90;999.90;;;31.80;97.90;;;;;;5033599;28;20037;-73
2023/06/25 10:50:38;;;;;;;1999.90;999.90;;;32.20;97.40;;;;;;5033915;28;20022;-72
2023/06/25 10:53:12;;;;;;;1999.90;999.90;;;33.50;95.50;;;;;;5034649;28;20029;-73
2023/06/25 10:55:38;;;;;;;1999.90;999.90;;;32.70;97.00;;;;;;5049693;28;20018;-72
2023/06/25 10:58:04;;;;;;;1999.90;999.90;;;32.30;96.90;;;;;;5034622;28;20033;-73
2023/06/25 11:00:30;;;;;;;1999.90;999.90;;;32.30;97.40;;;;;;5034265;28;20034;-73
2023/06/25 11:02:56;;;;;;;1999.90;999.90;;;32.50;96.80;;;;;;5033795;28;20061;-72
2023/06/25 11:05:41;;;;;;;1999.90;999.90;;;32.80;97.50;;;;;;5034161;28;20109;-73
2023/06/25 11:08:07;;;;;;;1999.90;999.90;;;31.80;99.90;;;;;;5033840;28;20030;-73
2023/06/25 11:10:35;;;;;;;1999.90;999.90;;;31.20;99.90;;;;;;5033870;28;20021;-73
2023/06/25 11:13:01;;;;;;;1999.90;999.90;;;30.90;99.90;;;;;;5033998;28;20033;-73
2023/06/25 11:15:33;;;;;;;1999.90;999.90;;;30.90;99.90;;;;;;5033788;28;20416;-73
2023/06/25 11:18:01;;;;;;;1999.90;999.90;;;31.00;99.90;;;;;;5033768;28;20091;-72
2023/06/25 11:20:27;;;;;;;1999.90;999.90;;;30.70;99.90;;;;;;5033393;28;20028;-73
2023/06/25 11:22:58;;;;;;;1999.90;999.90;;;30.40;99.90;;;;;;5033984;28;20040;-72
2023/06/25 11:25:24;;;;;;;1999.90;999.90;;;30.60;99.90;;;;;;5033754;28;20021;-72
2023/06/25 11:28:11;;;;;;;1999.90;999.90;;;31.80;99.90;;;;;;5033822;28;20025;-73
2023/06/25 11:30:37;;;;;;;1999.90;999.90;;;31.40;99.90;;;;;;5032252;28;20083;-73
2023/06/25 11:33:18;;;;;;;1999.90;999.90;;;31.50;99.90;;;;;;5033603;28;20018;-73
2023/06/25 11:35:50;;;;;;;1999.90;999.90;;;32.30;99.90;;;;;;5033863;28;20024;-73
2023/06/25 11:38:28;;;;;;;1999.90;999.90;;;32.70;99.90;;;;;;5033536;28;20021;-73
2023/06/25 11:40:57;;;;;;;1999.90;999.90;;;32.90;99.90;;;;;;5033312;28;20514;-73
2023/06/25 11:43:23;;;;;;;1999.90;999.90;;;33.70;99.90;;;;;;5033522;28;20375;-73
2023/06/25 11:45:49;;;;;;;1999.90;999.90;;;33.90;99.90;;;;;;5033624;28;20060;-73
2023/06/25 11:48:16;;;;;;;1999.90;999.90;;;33.50;99.90;;;;;;5032534;28;20061;-73
2023/06/25 11:50:47;;;;;;;1999.90;999.90;;;33.00;99.90;;;;;;5033108;28;20021;-73
2023/06/25 11:53:14;;;;;;;1999.90;999.90;;;32.90;99.90;;;;;;5033730;28;20037;-73
2023/06/25 11:55:40;;;;;;;1999.90;999.90;;;33.10;99.90;;;;;;5033810;28;20029;-73
2023/06/25 11:58:08;;;;;;;1999.90;999.90;;;34.30;99.90;;;;;;5049072;28;20033;-73
2023/06/25 12:00:33;;;;;;;1999.90;999.90;;;34.10;99.90;;;;;;5033228;28;20073;-73